createdAt,value
2023-04-10T00:01:56.152Z,19.87
2023-04-10T00:04:58.048Z,19.87
2023-04-10T00:07:59.773Z,18.50
2023-04-10T00:11:01.464Z,22.13
2023-04-10T00:14:03.195Z,18.00
2023-04-10T00:17:04.864Z,19.70
2023-04-10T00:20:07.228Z,18.23
2023-04-10T00:23:09.050Z,17.67
2023-04-10T00:26:10.738Z,19.40
2023-04-10T00:29:12.889Z,18.27
2023-04-10T00:32:14.715Z,19.27
2023-04-10T00:35:16.704Z,18.87
2023-04-10T00:38:18.437Z,20.90
2023-04-10T00:41:20.120Z,19.10
2023-04-10T00:44:21.777Z,18.50
2023-04-10T00:47:23.648Z,17.37
2023-04-10T00:50:25.490Z,19.13
2023-04-10T00:53:28.621Z,20.20
2023-04-10T00:56:33.866Z,16.90
2023-04-10T00:59:36.165Z,21.20
2023-04-10T01:02:38.389Z,18.43
2023-04-10T01:05:51.487Z,19.33
2023-04-10T01:09:05.610Z,17.77
2023-04-10T01:12:25.358Z,20.27
2023-04-10T01:15:30.757Z,20.07
2023-04-10T01:18:48.670Z,18.13
2023-04-10T01:21:53.551Z,18.37
2023-04-10T01:25:10.258Z,18.43
2023-04-10T01:28:40.372Z,19.43
2023-04-10T01:31:56.693Z,19.03
2023-04-10T01:35:02.420Z,19.47
2023-04-10T01:38:06.734Z,20.70
2023-04-10T01:41:08.535Z,17.80
2023-04-10T01:44:14.730Z,19.53
2023-04-10T01:47:18.242Z,20.90
2023-04-10T01:50:24.336Z,19.67
2023-04-10T01:53:26.453Z,20.13
2023-04-10T01:56:28.985Z,21.00
2023-04-10T01:59:31.317Z,19.67
2023-04-10T02:02:34.458Z,19.23
2023-04-10T02:05:59.851Z,20.83
2023-04-10T02:09:23.276Z,17.80
2023-04-10T02:12:42.132Z,19.37
2023-04-10T02:15:47.785Z,18.00
2023-04-10T02:18:50.617Z,18.77
2023-04-10T02:21:53.584Z,18.97
2023-04-10T02:24:55.552Z,18.87
2023-04-10T02:27:57.229Z,19.83
2023-04-10T02:30:58.922Z,16.27
2023-04-10T02:34:00.636Z,18.70
2023-04-10T02:37:02.327Z,17.23
2023-04-10T02:40:04.392Z,18.87
2023-04-10T02:43:06.061Z,19.73
2023-04-10T02:46:07.733Z,18.80
2023-04-10T02:49:09.399Z,19.03
2023-04-10T02:52:11.071Z,18.80
2023-04-10T02:55:12.835Z,20.37
2023-04-10T02:58:15.373Z,18.67
2023-04-10T03:01:17.271Z,18.17
2023-04-10T03:04:19.527Z,18.47
2023-04-10T03:07:21.484Z,18.90
2023-04-10T03:10:23.318Z,20.43
2023-04-10T03:13:25.014Z,19.00
2023-04-10T03:16:26.762Z,17.63
2023-04-10T03:19:28.515Z,19.30
2023-04-10T03:22:32.186Z,18.10
2023-04-10T03:25:36.911Z,19.73
2023-04-10T03:28:39.727Z,19.17
2023-04-10T03:31:42.119Z,20.90
2023-04-10T03:34:43.922Z,20.00
2023-04-10T03:37:45.727Z,19.97
2023-04-10T03:40:47.406Z,20.47
2023-04-10T03:43:49.058Z,20.00
2023-04-10T03:46:50.925Z,18.53
2023-04-10T03:49:52.630Z,19.27
2023-04-10T03:52:54.343Z,18.03
2023-04-10T03:55:56.217Z,17.60
2023-04-10T03:58:57.949Z,16.63
2023-04-10T04:02:00.789Z,18.13
2023-04-10T04:05:02.854Z,17.47
2023-04-10T04:08:06.716Z,18.83
2023-04-10T04:11:08.457Z,18.53
2023-04-10T04:14:10.301Z,20.27
2023-04-10T04:17:12.408Z,17.33
2023-04-10T04:20:14.086Z,18.57
2023-04-10T04:23:17.572Z,18.97
2023-04-10T04:26:19.265Z,17.83
2023-04-10T04:29:21.602Z,17.23
2023-04-10T04:32:23.353Z,15.93
2023-04-10T04:35:25.315Z,15.40
2023-04-10T04:38:27.004Z,15.63
2023-04-10T04:41:30.714Z,17.67
2023-04-10T04:44:32.451Z,17.07
2023-04-10T04:47:34.150Z,18.23
2023-04-10T04:50:35.829Z,14.47
2023-04-10T04:53:37.586Z,17.97
2023-04-10T04:56:39.352Z,15.97
2023-04-10T04:59:41.050Z,18.40
2023-04-10T05:02:42.876Z,17.90
2023-04-10T05:05:44.675Z,17.37
2023-04-10T05:08:46.442Z,17.73
2023-04-10T05:11:48.282Z,18.40
2023-04-10T05:14:49.924Z,16.97
2023-04-10T05:17:53.161Z,18.17
2023-04-10T05:20:54.920Z,16.43
2023-04-10T05:23:56.615Z,18.30
2023-04-10T05:26:58.279Z,17.20
2023-04-10T05:30:00.104Z,18.17
2023-04-10T05:33:01.929Z,18.33
2023-04-10T05:36:04.494Z,18.03
2023-04-10T05:39:06.253Z,16.73
2023-04-10T05:42:08.006Z,18.20
2023-04-10T05:45:10.144Z,20.73
2023-04-10T05:48:11.930Z,18.67
2023-04-10T05:51:13.667Z,17.70
2023-04-10T05:54:15.438Z,16.13
2023-04-10T05:57:17.129Z,17.73
2023-04-10T06:00:19.197Z,17.07
2023-04-10T06:03:21.382Z,14.23
2023-04-10T06:06:25.866Z,14.87
2023-04-10T06:10:13.478Z,15.93
2023-04-10T06:13:15.599Z,17.80
2023-04-10T06:16:17.393Z,17.47
2023-04-10T06:19:19.176Z,16.17
2023-04-10T06:22:21.344Z,15.43
2023-04-10T06:25:23.113Z,13.53
2023-04-10T06:28:27.808Z,13.73
2023-04-10T06:31:33.230Z,18.57
2023-04-10T06:34:34.950Z,15.27
2023-04-10T06:37:36.627Z,15.13
2023-04-10T06:40:38.765Z,14.30
2023-04-10T06:43:42.488Z,13.17
2023-04-10T06:46:44.209Z,19.33
2023-04-10T06:49:46.151Z,14.73
2023-04-10T06:52:48.320Z,15.60
2023-04-10T06:55:50.092Z,16.00
2023-04-10T06:58:51.926Z,14.50
2023-04-10T07:01:53.776Z,18.03
2023-04-10T07:04:56.808Z,14.37
2023-04-10T07:08:15.717Z,15.97
2023-04-10T07:11:17.395Z,15.00
2023-04-10T07:14:19.071Z,15.60
2023-04-10T07:17:22.006Z,15.33
2023-04-10T07:20:23.816Z,13.77
2023-04-10T07:23:25.501Z,12.83
2023-04-10T07:26:27.173Z,13.37
2023-04-10T07:29:28.974Z,13.53
2023-04-10T07:32:30.856Z,15.80
2023-04-10T07:35:32.656Z,12.27
2023-04-10T07:38:34.398Z,12.47
2023-04-10T07:41:36.150Z,13.33
2023-04-10T07:44:37.900Z,14.60
2023-04-10T07:47:39.664Z,15.13
2023-04-10T07:50:41.486Z,13.87
2023-04-10T07:53:43.250Z,13.00
2023-04-10T07:56:44.930Z,13.33
2023-04-10T07:59:46.621Z,13.23
2023-04-10T08:03:17.425Z,13.70
2023-04-10T08:06:19.326Z,13.63
2023-04-10T08:09:21.203Z,13.77
2023-04-10T08:12:22.931Z,13.20
2023-04-10T08:15:24.685Z,13.07
2023-04-10T08:18:26.392Z,13.87
2023-04-10T08:21:29.501Z,12.07
2023-04-10T08:24:31.163Z,12.77
2023-04-10T08:27:32.843Z,11.93
2023-04-10T08:30:34.503Z,12.40
2023-04-10T08:33:36.159Z,11.50
2023-04-10T08:36:37.827Z,11.20
2023-04-10T08:39:39.668Z,12.37
2023-04-10T08:42:41.488Z,11.43
2023-04-10T08:45:43.554Z,11.33
2023-04-10T08:48:52.810Z,12.37
2023-04-10T08:51:59.248Z,10.93
2023-04-10T08:55:06.006Z,11.70
2023-04-10T08:58:08.420Z,11.53
2023-04-10T09:01:13.536Z,15.30
2023-04-10T09:04:17.847Z,11.40
2023-04-10T09:07:19.733Z,10.57
2023-04-10T09:10:21.503Z,10.90
2023-04-10T09:13:40.366Z,10.93
2023-04-10T09:16:42.038Z,10.70
2023-04-10T09:19:45.693Z,10.60
2023-04-10T09:22:47.504Z,11.03
2023-04-10T09:25:50.750Z,12.47
2023-04-10T09:28:57.967Z,12.33
2023-04-10T09:31:59.681Z,11.27
2023-04-10T09:35:01.397Z,10.67
2023-04-10T09:38:17.323Z,11.03
2023-04-10T09:41:19.017Z,13.03
2023-04-10T09:44:31.332Z,11.17
2023-04-10T09:47:33.276Z,12.20
2023-04-10T09:50:40.933Z,10.73
2023-04-10T09:53:52.756Z,10.50
2023-04-10T09:56:55.327Z,10.70
2023-04-10T09:59:59.955Z,9.60
2023-04-10T10:03:04.968Z,10.80
2023-04-10T10:06:07.618Z,11.13
2023-04-10T10:09:09.475Z,12.13
2023-04-10T10:12:13.687Z,10.63
2023-04-10T10:15:38.766Z,12.43
2023-04-10T10:19:03.520Z,10.83
2023-04-10T10:22:08.950Z,10.23
2023-04-10T10:25:11.529Z,10.40
2023-04-10T10:28:14.646Z,12.17
2023-04-10T10:31:18.216Z,12.67
2023-04-10T10:34:20.407Z,11.10
2023-04-10T10:37:22.312Z,11.80
2023-04-10T10:40:30.117Z,10.97
2023-04-10T10:43:53.738Z,10.10
2023-04-10T10:47:27.910Z,12.03
2023-04-10T10:50:57.406Z,10.30
2023-04-10T10:53:59.939Z,10.70
2023-04-10T10:57:03.080Z,9.77
2023-04-10T11:00:05.379Z,9.87
2023-04-10T11:03:12.873Z,10.30
2023-04-10T11:06:22.143Z,9.87
2023-04-10T11:09:51.595Z,10.97
2023-04-10T11:13:17.678Z,10.53
2023-04-10T11:16:21.170Z,11.67
2023-04-10T11:19:25.545Z,9.33
2023-04-10T11:22:28.037Z,10.17
2023-04-10T11:25:50.424Z,9.03
2023-04-10T11:28:52.450Z,8.60
2023-04-10T11:32:02.554Z,9.60
2023-04-10T11:35:05.322Z,10.03
2023-04-10T11:38:11.809Z,8.63
2023-04-10T11:41:13.616Z,8.70
2023-04-10T11:44:35.797Z,10.70
2023-04-10T11:47:38.032Z,8.10
2023-04-10T11:50:39.797Z,7.40
2023-04-10T11:53:42.325Z,7.07
2023-04-10T11:56:46.167Z,8.47
2023-04-10T11:59:51.344Z,7.40
2023-04-10T12:02:53.366Z,6.80
2023-04-10T12:05:55.386Z,8.47
2023-04-10T12:08:57.325Z,5.70
2023-04-10T12:12:02.957Z,6.10
2023-04-10T12:15:30.725Z,6.60
2023-04-10T12:18:32.774Z,6.20
2023-04-10T12:21:38.060Z,6.10
2023-04-10T12:24:51.169Z,6.37
2023-04-10T12:27:53.279Z,6.07
2023-04-10T12:30:55.198Z,6.07
2023-04-10T12:33:58.121Z,5.80
2023-04-10T12:36:59.821Z,6.53
2023-04-10T12:40:08.227Z,5.23
2023-04-10T12:43:09.898Z,5.40
2023-04-10T12:46:29.540Z,7.03
2023-04-10T12:49:31.243Z,5.30
2023-04-10T12:52:33.193Z,5.00
2023-04-10T12:55:35.068Z,4.80
2023-04-10T12:58:36.991Z,4.50
2023-04-10T13:01:41.801Z,4.97
2023-04-10T13:04:43.680Z,4.83
2023-04-10T13:07:45.585Z,5.20
2023-04-10T13:10:47.274Z,5.03
2023-04-10T13:13:49.768Z,4.10
2023-04-10T13:16:51.445Z,4.07
2023-04-10T13:19:53.709Z,4.70
2023-04-10T13:22:55.532Z,4.43
2023-04-10T13:26:00.003Z,4.07
2023-04-10T13:29:01.742Z,5.63
2023-04-10T13:32:05.403Z,4.93
2023-04-10T13:35:07.401Z,5.77
2023-04-10T13:38:11.996Z,4.20
2023-04-10T13:41:13.679Z,4.80
2023-04-10T13:44:15.567Z,6.10
2023-04-10T13:47:17.234Z,5.40
2023-04-10T13:50:18.987Z,5.17
2023-04-10T13:53:20.720Z,7.20
2023-04-10T13:56:22.423Z,7.80
2023-04-10T13:59:24.094Z,6.33
2023-04-10T14:02:26.034Z,6.80
2023-04-10T14:05:27.819Z,4.77
2023-04-10T14:08:29.598Z,5.40
2023-04-10T14:11:31.296Z,4.80
2023-04-10T14:14:33.136Z,5.10
2023-04-10T14:17:34.933Z,4.30
2023-04-10T14:20:36.727Z,6.17
2023-04-10T14:23:38.382Z,5.50
2023-04-10T14:26:40.217Z,4.90
2023-04-10T14:29:50.696Z,4.67
2023-04-10T14:32:56.860Z,4.83
2023-04-10T14:35:58.776Z,4.40
2023-04-10T14:39:00.501Z,5.13
2023-04-10T14:42:02.770Z,6.53
2023-04-10T14:45:06.159Z,4.90
2023-04-10T14:48:08.081Z,4.83
2023-04-10T14:51:12.811Z,5.30
2023-04-10T14:54:15.894Z,4.40
2023-04-10T14:57:17.618Z,4.83
2023-04-10T15:00:19.566Z,4.57
2023-04-10T15:03:24.548Z,4.30
2023-04-10T15:06:28.229Z,4.23
2023-04-10T15:09:30.038Z,5.70
2023-04-10T15:12:31.803Z,4.43
2023-04-10T15:15:33.470Z,4.20
2023-04-10T15:18:35.241Z,4.90
2023-04-10T15:21:37.004Z,4.20
2023-04-10T15:24:49.752Z,4.27
2023-04-10T15:27:55.286Z,4.30
2023-04-10T15:30:57.802Z,4.70
2023-04-10T15:33:59.552Z,5.10
2023-04-10T15:37:01.443Z,4.37
2023-04-10T15:40:05.046Z,5.03
2023-04-10T15:43:06.761Z,4.77
2023-04-10T15:46:08.571Z,5.17
2023-04-10T15:49:10.262Z,4.97
2023-04-10T15:52:16.001Z,4.90
2023-04-10T15:55:17.818Z,4.67
2023-04-10T15:58:19.480Z,5.00
2023-04-10T16:01:21.363Z,4.60
2023-04-10T16:04:23.679Z,4.50
2023-04-10T16:07:25.558Z,4.77
2023-04-10T16:10:27.239Z,5.10
2023-04-10T16:13:28.899Z,4.83
2023-04-10T16:16:30.775Z,5.03
2023-04-10T16:19:32.489Z,5.13
2023-04-10T16:22:34.376Z,5.37
2023-04-10T16:25:36.210Z,4.80
2023-04-10T16:28:37.872Z,4.67
2023-04-10T16:31:39.658Z,5.20
2023-04-10T16:34:41.426Z,4.63
2023-04-10T16:37:43.092Z,4.90
2023-04-10T16:40:44.758Z,4.80
2023-04-10T16:43:46.622Z,5.00
2023-04-10T16:46:48.454Z,4.63
2023-04-10T16:49:50.286Z,4.70
2023-04-10T16:52:52.040Z,4.67
2023-04-10T16:56:02.821Z,4.50
2023-04-10T16:59:06.123Z,5.00
2023-04-10T17:02:07.895Z,4.87
2023-04-10T17:05:10.006Z,5.23
2023-04-10T17:08:11.707Z,5.47
2023-04-10T17:11:13.678Z,5.00
2023-04-10T17:14:16.022Z,4.80
2023-04-10T17:17:17.804Z,4.37
2023-04-10T17:20:19.728Z,5.57
2023-04-10T17:23:21.476Z,4.63
2023-04-10T17:26:23.508Z,4.17
2023-04-10T17:29:25.878Z,4.20
2023-04-10T17:32:27.637Z,4.07
2023-04-10T17:35:44.738Z,3.90
2023-04-10T17:38:46.470Z,3.63
2023-04-10T17:41:48.146Z,4.07
2023-04-10T17:44:49.843Z,4.17
2023-04-10T17:47:51.679Z,4.70
2023-04-10T17:50:53.487Z,4.37
2023-04-10T17:53:56.278Z,4.07
2023-04-10T17:56:58.077Z,4.33
2023-04-10T17:59:59.835Z,4.37
2023-04-10T18:03:01.601Z,4.00
2023-04-10T18:06:03.394Z,5.23
2023-04-10T18:09:05.142Z,5.63
2023-04-10T18:12:06.864Z,4.80
2023-04-10T18:15:09.365Z,4.00
2023-04-10T18:18:11.193Z,4.60
2023-04-10T18:21:13.861Z,4.37
2023-04-10T18:24:15.694Z,4.30
2023-04-10T18:27:17.469Z,4.43
2023-04-10T18:30:19.491Z,4.00
2023-04-10T18:33:23.940Z,4.03
2023-04-10T18:36:25.740Z,4.57
2023-04-10T18:39:27.423Z,4.93
2023-04-10T18:42:29.103Z,3.90
2023-04-10T18:45:33.064Z,3.93
2023-04-10T18:48:35.996Z,4.50
2023-04-10T18:51:40.331Z,4.13
2023-04-10T18:54:45.409Z,4.17
2023-04-10T18:57:47.242Z,4.40
2023-04-10T19:00:49.222Z,4.00
2023-04-10T19:03:52.594Z,4.70
2023-04-10T19:06:54.956Z,4.07
2023-04-10T19:09:56.609Z,5.50
2023-04-10T19:12:58.425Z,4.30
2023-04-10T19:16:03.381Z,4.30
2023-04-10T19:19:05.172Z,4.27
2023-04-10T19:22:06.905Z,5.07
2023-04-10T19:25:08.717Z,5.13
2023-04-10T19:28:10.474Z,4.07
2023-04-10T19:31:12.416Z,3.93
2023-04-10T19:34:14.101Z,6.27
2023-04-10T19:37:15.776Z,3.97
2023-04-10T19:40:20.487Z,4.27
2023-04-10T19:43:22.185Z,3.93
2023-04-10T19:46:23.968Z,4.47
2023-04-10T19:49:27.132Z,4.20
2023-04-10T19:52:30.361Z,4.50
2023-04-10T19:55:32.139Z,3.33
2023-04-10T19:58:40.535Z,3.47
2023-04-10T20:01:43.300Z,4.20
2023-04-10T20:04:47.202Z,3.80
2023-04-10T20:07:50.496Z,3.73
2023-04-10T20:10:52.211Z,4.43
2023-04-10T20:13:53.871Z,4.20
2023-04-10T20:16:55.781Z,5.20
2023-04-10T20:19:57.766Z,4.23
2023-04-10T20:22:59.503Z,4.47
2023-04-10T20:26:01.195Z,4.33
2023-04-10T20:29:02.893Z,3.40
2023-04-10T20:32:07.027Z,3.10
2023-04-10T20:35:09.678Z,4.17
2023-04-10T20:38:11.534Z,3.37
2023-04-10T20:41:13.279Z,3.83
2023-04-10T20:44:15.338Z,3.53
2023-04-10T20:47:17.010Z,4.07
2023-04-10T20:50:18.820Z,3.57
2023-04-10T20:53:20.479Z,3.80
2023-04-10T20:56:29.875Z,3.80
2023-04-10T20:59:38.401Z,3.03
2023-04-10T21:02:40.472Z,3.40
2023-04-10T21:05:47.343Z,4.23
2023-04-10T21:08:49.020Z,3.40
2023-04-10T21:11:50.687Z,3.63
2023-04-10T21:14:52.413Z,3.50
2023-04-10T21:17:54.113Z,3.77
2023-04-10T21:20:55.817Z,3.20
2023-04-10T21:23:57.541Z,3.73
2023-04-10T21:26:59.232Z,3.40
2023-04-10T21:30:00.957Z,3.77
2023-04-10T21:33:03.063Z,3.80
2023-04-10T21:36:06.407Z,3.53
2023-04-10T21:39:09.296Z,3.33
2023-04-10T21:42:11.236Z,3.93
2023-04-10T21:45:15.556Z,3.70
2023-04-10T21:48:19.403Z,3.67
2023-04-10T21:51:21.641Z,3.70
2023-04-10T21:54:23.316Z,3.43
2023-04-10T21:57:25.004Z,3.50
2023-04-10T22:00:28.480Z,3.73
2023-04-10T22:03:30.521Z,3.30
2023-04-10T22:06:32.755Z,3.90
2023-04-10T22:09:34.421Z,4.23
2023-04-10T22:12:36.255Z,3.53
2023-04-10T22:15:37.915Z,3.13
2023-04-10T22:18:53.837Z,3.03
2023-04-10T22:21:56.818Z,3.67
2023-04-10T22:24:58.605Z,3.20
2023-04-10T22:28:00.404Z,3.37
2023-04-10T22:31:02.135Z,5.20
2023-04-10T22:34:03.949Z,3.67
2023-04-10T22:37:05.783Z,3.10
2023-04-10T22:40:08.213Z,3.20
2023-04-10T22:43:10.868Z,3.30
2023-04-10T22:46:12.603Z,3.27
2023-04-10T22:49:17.061Z,3.10
2023-04-10T22:52:18.737Z,3.33
2023-04-10T22:55:20.581Z,3.17
2023-04-10T22:58:22.262Z,3.73
2023-04-10T23:01:23.967Z,2.93
2023-04-10T23:04:25.910Z,3.07
2023-04-10T23:07:27.853Z,3.70
2023-04-10T23:10:29.666Z,4.53
2023-04-10T23:13:31.418Z,3.77
2023-04-10T23:16:33.214Z,3.87
2023-04-10T23:19:34.942Z,3.17
2023-04-10T23:22:36.619Z,4.37
2023-04-10T23:25:38.435Z,2.87
2023-04-10T23:28:40.478Z,3.37
2023-04-10T23:31:42.314Z,4.57
2023-04-10T23:34:44.184Z,3.90
2023-04-10T23:37:45.859Z,4.53
2023-04-10T23:40:47.746Z,3.40
2023-04-10T23:43:49.473Z,4.27
2023-04-10T23:46:51.334Z,3.77
2023-04-10T23:49:54.694Z,4.00
2023-04-10T23:52:56.567Z,4.30
2023-04-10T23:55:58.235Z,3.80
2023-04-10T23:59:00.125Z,4.93
